Time;durP1;ratioP1;P1;durP2;ratioP2;P2;SDS_P1;SDS_P2;PMS_P1;PMS_P2;Temp;Humidity;BMP_temperature;BMP_pressure;BME280_temperature;BME280_humidity;BME280_pressure;Samples;Min_cycle;Max_cycle;Signal;HPM_P1;HPM_P2
2023/10/20 00:02:17;;;;;;;0.30;0.20;;;19.10;99.90;;;;;;5044924;28;20209;-78
2023/10/20 00:04:44;;;;;;;28.30;7.63;;;19.10;99.90;;;;;;5046796;28;20454;-88
2023/10/20 00:07:10;;;;;;;0.30;0.30;;;19.10;99.90;;;;;;5044838;28;20182;-87
2023/10/20 00:09:35;;;;;;;1.27;1.27;;;19.10;99.90;;;;;;5046489;28;20434;-78
2023/10/20 00:12:01;;;;;;;0.40;0.40;;;19.10;99.90;;;;;;5044562;28;20517;-88
2023/10/20 00:14:27;;;;;;;0.30;0.20;;;19.10;99.90;;;;;;5045061;28;20211;-87
2023/10/20 00:16:53;;;;;;;0.30;0.20;;;19.10;99.90;;;;;;5077745;28;20185;-78
2023/10/20 00:19:18;;;;;;;0.30;0.20;;;19.10;99.90;;;;;;5045194;28;20263;-78
2023/10/20 00:21:45;;;;;;;0.30;0.20;;;19.00;99.90;;;;;;5045202;28;20272;-88
2023/10/20 00:24:12;;;;;;;0.30;0.20;;;19.00;99.90;;;;;;5046507;28;20184;-88
2023/10/20 00:26:39;;;;;;;0.30;0.30;;;19.00;99.90;;;;;;5046430;28;20910;-87
2023/10/20 00:29:05;;;;;;;0.40;0.40;;;19.00;99.90;;;;;;5044830;28;20510;-88
2023/10/20 00:31:32;;;;;;;0.30;0.20;;;19.00;99.90;;;;;;5044673;28;20924;-78
2023/10/20 00:33:57;;;;;;;1.63;1.53;;;19.10;99.90;;;;;;5046120;28;20422;-78
2023/10/20 00:36:23;;;;;;;0.30;0.30;;;19.10;99.90;;;;;;5078038;28;20446;-78
2023/10/20 00:38:48;;;;;;;0.30;0.20;;;19.10;99.90;;;;;;5078159;28;20183;-78
2023/10/20 00:41:14;;;;;;;5.30;4.83;;;19.10;99.90;;;;;;5043917;28;20709;-78
2023/10/20 00:43:40;;;;;;;3.33;3.03;;;19.10;99.90;;;;;;5044763;28;20189;-87
2023/10/20 00:46:08;;;;;;;0.30;0.30;;;19.10;99.90;;;;;;5045681;28;20320;-87
2023/10/20 00:48:37;;;;;;;0.30;0.20;;;19.10;99.90;;;;;;5044536;28;20236;-87
2023/10/20 00:51:07;;;;;;;0.30;0.20;;;19.10;99.90;;;;;;5044089;28;20810;-79
2023/10/20 00:53:34;;;;;;;2.50;1.27;;;19.10;99.90;;;;;;5044721;28;20426;-87
2023/10/20 00:56:03;;;;;;;1.90;1.80;;;19.10;99.90;;;;;;5077953;28;20986;-87
2023/10/20 00:58:29;;;;;;;0.30;0.20;;;19.10;99.90;;;;;;5044633;28;20509;-88
2023/10/20 01:00:55;;;;;;;1.07;1.07;;;19.10;99.90;;;;;;5045822;28;20474;-78
2023/10/20 01:03:22;;;;;;;0.30;0.20;;;19.10;99.90;;;;;;5045714;28;20911;-78
2023/10/20 01:05:48;;;;;;;0.40;0.40;;;19.10;99.90;;;;;;5044437;28;20450;-88
2023/10/20 01:08:14;;;;;;;0.67;0.67;;;19.00;99.90;;;;;;5044327;28;20524;-78
2023/10/20 01:10:40;;;;;;;0.30;0.20;;;19.00;99.90;;;;;;5043969;28;20478;-87
2023/10/20 01:13:08;;;;;;;1.43;1.33;;;19.00;99.90;;;;;;5045706;28;20441;-82
2023/10/20 01:15:34;;;;;;;0.30;0.20;;;19.00;99.90;;;;;;5044118;28;20202;-78
2023/10/20 01:17:59;;;;;;;0.30;0.20;;;19.00;99.90;;;;;;5043967;28;20440;-78
2023/10/20 01:20:25;;;;;;;0.30;0.20;;;18.90;99.90;;;;;;5077688;28;20474;-78
2023/10/20 01:22:50;;;;;;;1.03;1.03;;;18.90;99.90;;;;;;5043127;28;20585;-85
2023/10/20 01:25:16;;;;;;;0.40;0.30;;;18.90;99.90;;;;;;5044250;28;20450;-86
2023/10/20 01:27:42;;;;;;;0.30;0.20;;;18.90;99.90;;;;;;5044174;28;20177;-78
2023/10/20 01:30:10;;;;;;;0.30;0.20;;;18.90;99.90;;;;;;5077676;28;20457;-78
2023/10/20 01:32:36;;;;;;;0.30;0.20;;;18.90;99.90;;;;;;5044199;28;20276;-78
2023/10/20 01:35:03;;;;;;;0.30;0.20;;;18.90;99.90;;;;;;5045680;28;20965;-88
2023/10/20 01:37:29;;;;;;;0.30;0.20;;;18.80;99.90;;;;;;5043769;28;20422;-86
2023/10/20 01:39:55;;;;;;;0.30;0.20;;;18.80;99.90;;;;;;5043856;28;20481;-86
2023/10/20 01:42:21;;;;;;;0.40;0.30;;;18.80;99.90;;;;;;5045152;28;20216;-87
2023/10/20 01:44:47;;;;;;;0.30;0.30;;;18.80;99.90;;;;;;5045721;28;20945;-81
2023/10/20 01:47:13;;;;;;;0.30;0.20;;;18.70;99.90;;;;;;5043671;28;20424;-87
2023/10/20 01:49:39;;;;;;;0.57;0.53;;;18.70;99.90;;;;;;5045776;28;20422;-78
2023/10/20 01:52:04;;;;;;;0.40;0.37;;;18.60;99.90;;;;;;5047238;28;20408;-87
2023/10/20 01:54:30;;;;;;;0.40;0.30;;;18.60;99.90;;;;;;5047690;28;20440;-77
2023/10/20 01:56:56;;;;;;;0.30;0.20;;;18.60;99.90;;;;;;5047141;28;20238;-79
2023/10/20 01:59:21;;;;;;;0.30;0.20;;;18.60;99.90;;;;;;5048592;28;20732;-87
2023/10/20 02:01:48;;;;;;;0.30;0.20;;;18.60;99.90;;;;;;5048990;28;20191;-77
2023/10/20 02:04:14;;;;;;;0.80;0.80;;;18.60;99.90;;;;;;5047655;28;20180;-87
2023/10/20 02:06:39;;;;;;;14.40;13.80;;;18.60;99.90;;;;;;5047050;28;20429;-89
2023/10/20 02:09:06;;;;;;;0.30;0.20;;;18.70;99.90;;;;;;5048751;28;20505;-79
2023/10/20 02:11:32;;;;;;;0.30;0.20;;;18.70;99.90;;;;;;5080512;28;20331;-78
2023/10/20 02:13:57;;;;;;;0.30;0.30;;;18.70;99.90;;;;;;5048628;28;20512;-86
2023/10/20 02:16:24;;;;;;;0.30;0.20;;;18.70;99.90;;;;;;5048358;28;20461;-89
2023/10/20 02:18:49;;;;;;;1.73;1.63;;;18.80;99.90;;;;;;5048446;28;20175;-87
2023/10/20 02:21:15;;;;;;;0.30;0.30;;;18.80;99.90;;;;;;5079515;28;21027;-78
2023/10/20 02:23:41;;;;;;;0.30;0.20;;;18.90;99.90;;;;;;5046864;28;20550;-88
2023/10/20 02:26:08;;;;;;;0.30;0.20;;;18.90;99.90;;;;;;5048264;28;20204;-87
2023/10/20 02:28:37;;;;;;;0.30;0.30;;;19.00;99.90;;;;;;5047310;28;20697;-87
2023/10/20 02:31:14;;;;;;;0.30;0.20;;;19.10;99.90;;;;;;5046742;28;20445;-87
2023/10/20 02:33:40;;;;;;;0.30;0.20;;;19.10;99.90;;;;;;5048544;28;20753;-88
2023/10/20 02:36:06;;;;;;;0.30;0.20;;;19.10;99.90;;;;;;5046510;28;20492;-78
2023/10/20 02:38:32;;;;;;;0.30;0.20;;;19.10;99.90;;;;;;5046844;28;20525;-78
2023/10/20 02:40:58;;;;;;;0.30;0.20;;;19.20;99.90;;;;;;5046651;28;20220;-87
2023/10/20 02:43:24;;;;;;;0.30;0.20;;;19.20;99.90;;;;;;5048238;28;20708;-78
2023/10/20 02:45:54;;;;;;;0.70;0.70;;;19.20;99.90;;;;;;5048099;28;20194;-88
2023/10/20 02:48:21;;;;;;;1.17;1.03;;;19.30;99.90;;;;;;5047964;28;20402;-88
2023/10/20 02:50:47;;;;;;;0.30;0.20;;;19.30;99.90;;;;;;5079891;28;20461;-82
2023/10/20 02:53:16;;;;;;;0.77;0.77;;;19.30;99.90;;;;;;5046502;28;20896;-79
2023/10/20 02:55:42;;;;;;;0.30;0.20;;;19.30;99.90;;;;;;5047589;28;20922;-78
2023/10/20 02:58:12;;;;;;;0.30;0.20;;;19.40;99.90;;;;;;5047693;28;20422;-87
2023/10/20 03:00:45;;;;;;;1.37;1.27;;;19.30;99.90;;;;;;5047681;28;20478;-77
2023/10/20 03:03:13;;;;;;;1.17;1.17;;;19.40;99.90;;;;;;5046780;28;20395;-87
2023/10/20 03:05:43;;;;;;;0.30;0.20;;;19.40;99.90;;;;;;5046323;28;20473;-87
2023/10/20 03:08:09;;;;;;;0.60;0.60;;;19.40;99.90;;;;;;5047529;28;20643;-78
2023/10/20 03:10:35;;;;;;;0.40;0.30;;;19.40;99.90;;;;;;5047095;28;20982;-78
2023/10/20 03:13:02;;;;;;;0.30;0.20;;;19.40;99.90;;;;;;5046291;28;20403;-88
2023/10/20 03:15:27;;;;;;;0.30;0.20;;;19.40;99.90;;;;;;5047488;28;20783;-87
2023/10/20 03:17:53;;;;;;;0.30;0.20;;;19.50;99.90;;;;;;5045262;28;20419;-84
2023/10/20 03:20:24;;;;;;;0.50;0.50;;;19.50;99.90;;;;;;5045328;28;20228;-88
2023/10/20 03:22:51;;;;;;;0.40;0.40;;;19.50;99.90;;;;;;5045451;28;20246;-78
2023/10/20 03:25:18;;;;;;;0.30;0.30;;;19.50;99.90;;;;;;5047138;28;20926;-79
2023/10/20 03:27:44;;;;;;;0.30;0.20;;;19.50;99.90;;;;;;5046907;28;20438;-78
2023/10/20 03:30:09;;;;;;;0.83;0.83;;;19.50;99.90;;;;;;5047261;28;20485;-78
2023/10/20 03:32:35;;;;;;;0.30;0.20;;;19.50;99.90;;;;;;5047132;28;20177;-78
2023/10/20 03:35:01;;;;;;;0.30;0.20;;;19.50;99.90;;;;;;5046938;28;20201;-87
2023/10/20 03:37:27;;;;;;;0.30;0.20;;;19.50;99.90;;;;;;5045640;28;20705;-78
2023/10/20 03:39:53;;;;;;;0.40;0.30;;;19.50;99.90;;;;;;5046007;28;20478;-88
2023/10/20 03:42:19;;;;;;;0.30;0.20;;;19.50;99.90;;;;;;5046576;28;20425;-78
2023/10/20 03:44:47;;;;;;;0.30;0.20;;;19.50;99.90;;;;;;5046028;28;20435;-88
2023/10/20 03:47:17;;;;;;;0.30;0.20;;;19.50;99.90;;;;;;5078665;28;20185;-78
2023/10/20 03:49:43;;;;;;;0.30;0.30;;;19.50;99.90;;;;;;5045347;28;20517;-88
2023/10/20 03:52:11;;;;;;;0.30;0.20;;;19.50;99.90;;;;;;5045674;28;20486;-87
2023/10/20 03:54:38;;;;;;;0.30;0.20;;;19.60;99.90;;;;;;5046743;28;20227;-79
2023/10/20 03:57:04;;;;;;;0.30;0.20;;;19.70;99.90;;;;;;5046476;28;20421;-87
2023/10/20 03:59:31;;;;;;;0.30;0.30;;;19.70;99.90;;;;;;5046302;28;20470;-81
2023/10/20 04:01:56;;;;;;;2.77;0.77;;;19.70;99.90;;;;;;5046298;28;20399;-78
2023/10/20 04:04:22;;;;;;;0.33;0.20;;;19.70;99.90;;;;;;5044883;28;20434;-87
2023/10/20 04:06:49;;;;;;;0.30;0.30;;;19.70;99.90;;;;;;5046538;28;20219;-86
2023/10/20 04:09:17;;;;;;;2.10;2.00;;;19.70;99.90;;;;;;5045057;28;20693;-87
2023/10/20 04:11:44;;;;;;;0.30;0.20;;;19.70;99.90;;;;;;5046723;28;20492;-88
2023/10/20 04:14:10;;;;;;;0.30;0.20;;;19.70;99.90;;;;;;5043866;28;20458;-79
2023/10/20 04:16:39;;;;;;;0.30;0.20;;;19.80;99.90;;;;;;5044789;28;20442;-78
2023/10/20 04:19:09;;;;;;;0.30;0.20;;;19.80;99.90;;;;;;5044329;28;20773;-79
2023/10/20 04:21:38;;;;;;;0.30;0.20;;;19.70;99.90;;;;;;5046362;28;20472;-88
2023/10/20 04:24:04;;;;;;;0.30;0.20;;;19.80;99.90;;;;;;5043160;28;20435;-78
2023/10/20 04:26:31;;;;;;;0.40;0.30;;;19.80;99.90;;;;;;5029820;28;20435;-87
2023/10/20 04:56:33;;;;;;;0.30;0.20;;;19.60;99.90;;;;;;5015647;28;20780;-87
2023/10/20 04:59:09;;;;;;;0.40;0.40;;;19.60;99.90;;;;;;5009639;28;20813;-88
2023/10/20 05:01:43;;;;;;;0.30;0.20;;;19.60;99.90;;;;;;5027109;28;20438;-79
2023/10/20 05:04:52;;;;;;;0.60;0.60;;;19.60;99.90;;;;;;5029471;28;20975;-88
2023/10/20 05:07:08;;;;;;;1.37;1.00;;;19.60;99.90;;;;;;5028318;28;20867;-79
2023/10/20 05:09:40;;;;;;;0.30;0.30;;;19.60;99.90;;;;;;5042017;28;20442;-87
2023/10/20 05:12:07;;;;;;;1.13;1.13;;;19.60;99.90;;;;;;5042572;28;20703;-88
2023/10/20 05:14:32;;;;;;;0.30;0.20;;;19.60;99.90;;;;;;5043916;28;20435;-87
2023/10/20 05:16:58;;;;;;;0.43;0.40;;;19.60;99.90;;;;;;5070140;28;20966;-78
2023/10/20 05:19:24;;;;;;;0.30;0.20;;;19.60;99.90;;;;;;5041811;28;20281;-87
2023/10/20 05:21:50;;;;;;;0.30;0.20;;;19.60;99.90;;;;;;5040921;28;20285;-78
2023/10/20 05:24:16;;;;;;;0.53;0.53;;;19.60;99.90;;;;;;5040758;28;20613;-88
2023/10/20 05:26:45;;;;;;;0.40;0.40;;;19.60;99.90;;;;;;5035996;28;20434;-78
2023/10/20 05:29:11;;;;;;;0.30;0.20;;;19.60;99.90;;;;;;5045410;28;20686;-87
2023/10/20 05:31:38;;;;;;;0.30;0.20;;;19.60;99.90;;;;;;5042688;28;20487;-81
2023/10/20 05:34:04;;;;;;;0.93;0.70;;;19.60;99.90;;;;;;5045800;28;20583;-88
2023/10/20 05:36:29;;;;;;;0.60;0.60;;;19.60;99.90;;;;;;5042699;28;20530;-78
2023/10/20 05:38:55;;;;;;;0.30;0.20;;;19.60;99.90;;;;;;5046970;28;20246;-85
2023/10/20 05:41:21;;;;;;;0.30;0.20;;;19.60;99.90;;;;;;5043652;28;20691;-87
2023/10/20 05:43:47;;;;;;;0.30;0.20;;;19.60;99.90;;;;;;5046778;28;20216;-80
2023/10/20 05:46:17;;;;;;;0.30;0.20;;;19.50;99.90;;;;;;5046806;28;20466;-78
2023/10/20 05:48:43;;;;;;;0.30;0.20;;;19.60;99.90;;;;;;5045634;28;20648;-78
2023/10/20 05:51:09;;;;;;;0.30;0.20;;;19.60;99.90;;;;;;5045077;28;20974;-87
2023/10/20 05:53:36;;;;;;;0.30;0.20;;;19.60;99.90;;;;;;5037244;28;20442;-78
2023/10/20 05:56:01;;;;;;;0.30;0.20;;;19.60;99.90;;;;;;5045172;28;20201;-79
2023/10/20 05:58:30;;;;;;;0.30;0.20;;;19.60;99.90;;;;;;5044968;28;20441;-79
2023/10/20 06:01:02;;;;;;;0.40;0.30;;;19.60;99.90;;;;;;5045627;28;20540;-92
2023/10/20 06:03:28;;;;;;;0.30;0.20;;;19.60;99.90;;;;;;5044255;28;20427;-79
2023/10/20 06:05:59;;;;;;;0.30;0.20;;;19.60;99.90;;;;;;5037187;28;20869;-79
2023/10/20 06:08:25;;;;;;;0.40;0.40;;;19.60;99.90;;;;;;5038433;28;20174;-79
2023/10/20 06:10:52;;;;;;;0.30;0.30;;;19.60;99.90;;;;;;5039210;28;20565;-89
2023/10/20 06:13:18;;;;;;;0.30;0.30;;;19.60;99.90;;;;;;5042683;28;21006;-89
2023/10/20 06:15:44;;;;;;;0.30;0.20;;;19.60;99.90;;;;;;5042491;28;20451;-89
2023/10/20 06:18:10;;;;;;;0.30;0.20;;;19.60;99.90;;;;;;5032227;28;20218;-79
2023/10/20 06:20:39;;;;;;;0.30;0.30;;;19.70;99.90;;;;;;5029086;28;20522;-92
2023/10/20 06:23:05;;;;;;;0.30;0.20;;;19.60;99.90;;;;;;5025122;28;20201;-79
2023/10/20 06:25:32;;;;;;;0.40;0.33;;;19.70;99.90;;;;;;5031365;28;20459;-79
2023/10/20 06:27:57;;;;;;;0.30;0.20;;;19.70;99.90;;;;;;5044552;28;20209;-88
2023/10/20 06:30:23;;;;;;;0.30;0.20;;;19.70;99.90;;;;;;5044433;28;21030;-81
2023/10/20 06:32:56;;;;;;;0.30;0.20;;;19.70;99.90;;;;;;5042504;28;20186;-80
2023/10/20 06:35:32;;;;;;;0.30;0.20;;;19.70;99.90;;;;;;5033119;28;20259;-82
2023/10/20 06:40:33;;;;;;;0.30;0.20;;;19.80;99.90;;;;;;5040035;28;20570;-81
2023/10/20 06:42:59;;;;;;;0.30;0.20;;;19.80;99.90;;;;;;5025920;28;20472;-77
2023/10/20 06:45:24;;;;;;;0.83;0.80;;;19.80;99.90;;;;;;5044449;28;20315;-78
2023/10/20 06:47:50;;;;;;;0.30;0.20;;;19.80;99.90;;;;;;5042917;28;20197;-78
2023/10/20 06:50:16;;;;;;;0.30;0.20;;;19.90;99.90;;;;;;5039958;28;20681;-79
2023/10/20 06:52:41;;;;;;;0.30;0.20;;;19.90;99.90;;;;;;5043602;28;20204;-80
2023/10/20 06:55:09;;;;;;;0.30;0.20;;;19.90;99.90;;;;;;5036543;28;20217;-80
2023/10/20 06:57:35;;;;;;;0.30;0.20;;;20.00;99.90;;;;;;5074429;28;20453;-81
2023/10/20 07:00:03;;;;;;;0.30;0.20;;;20.00;99.90;;;;;;5040487;28;21003;-80
2023/10/20 07:02:29;;;;;;;0.50;0.50;;;20.10;99.90;;;;;;5041720;28;20834;-82
2023/10/20 07:04:55;;;;;;;0.30;0.20;;;20.10;99.90;;;;;;5042872;28;21028;-78
2023/10/20 07:07:21;;;;;;;0.30;0.20;;;20.10;99.90;;;;;;5041111;28;20182;-79
2023/10/20 07:09:47;;;;;;;0.30;0.20;;;20.20;99.90;;;;;;5041549;28;20515;-81
2023/10/20 07:12:14;;;;;;;0.30;0.20;;;20.20;99.90;;;;;;5039853;28;20249;-78
2023/10/20 07:14:42;;;;;;;0.83;0.83;;;20.30;99.90;;;;;;5040358;28;20802;-79
2023/10/20 07:17:08;;;;;;;0.30;0.20;;;20.30;99.90;;;;;;5042299;28;20513;-77
2023/10/20 07:19:34;;;;;;;0.30;0.30;;;20.30;99.90;;;;;;5040209;28;21215;-79
2023/10/20 07:22:02;;;;;;;0.30;0.20;;;20.40;99.90;;;;;;5048128;28;20522;-77
2023/10/20 07:24:28;;;;;;;2.73;1.03;;;20.50;99.90;;;;;;5042828;28;20194;-80
2023/10/20 07:26:54;;;;;;;0.30;0.20;;;20.60;99.90;;;;;;5039712;28;20458;-79
2023/10/20 07:29:20;;;;;;;0.80;0.60;;;20.60;99.90;;;;;;5045171;28;20821;-79
2023/10/20 07:31:47;;;;;;;0.30;0.20;;;20.70;99.90;;;;;;5041856;28;20659;-77
2023/10/20 07:34:13;;;;;;;0.30;0.20;;;20.70;99.90;;;;;;5044020;28;20385;-78
2023/10/20 07:36:40;;;;;;;0.30;0.20;;;20.80;99.90;;;;;;5042125;28;21057;-79
2023/10/20 07:39:08;;;;;;;1.43;1.33;;;20.90;99.90;;;;;;5043763;28;20564;-79
2023/10/20 07:41:35;;;;;;;0.30;0.27;;;21.00;99.90;;;;;;5042067;28;20457;-79
2023/10/20 07:44:02;;;;;;;0.40;0.40;;;21.00;99.90;;;;;;5042108;28;20804;-77
2023/10/20 07:46:27;;;;;;;0.50;0.50;;;21.10;99.90;;;;;;5044934;28;20431;-75
2023/10/20 07:48:53;;;;;;;0.30;0.20;;;21.20;99.90;;;;;;5041926;28;20707;-79
2023/10/20 07:51:19;;;;;;;0.63;0.63;;;21.20;99.90;;;;;;5042505;28;20208;-75
2023/10/20 07:53:46;;;;;;;1.37;1.27;;;21.30;99.90;;;;;;5042101;28;20422;-77
2023/10/20 07:56:11;;;;;;;0.30;0.20;;;21.40;99.90;;;;;;5041833;28;20443;-77
2023/10/20 07:58:41;;;;;;;0.30;0.30;;;21.50;99.90;;;;;;5034663;28;21130;-76
2023/10/20 08:01:07;;;;;;;0.30;0.20;;;21.50;99.90;;;;;;5034577;28;20229;-77
2023/10/20 08:03:33;;;;;;;0.30;0.20;;;21.60;99.90;;;;;;5040631;28;20569;-78
2023/10/20 08:06:03;;;;;;;0.30;0.20;;;21.60;99.90;;;;;;5040683;28;20197;-78
2023/10/20 08:08:29;;;;;;;0.30;0.20;;;21.70;99.90;;;;;;5038491;28;20522;-78
2023/10/20 08:10:55;;;;;;;0.30;0.20;;;21.80;99.90;;;;;;5045285;28;20493;-78
2023/10/20 08:13:21;;;;;;;0.77;0.50;;;21.80;99.90;;;;;;5034567;28;20912;-77
2023/10/20 08:15:47;;;;;;;0.30;0.20;;;21.90;99.90;;;;;;5038602;28;20574;-78
2023/10/20 08:18:13;;;;;;;0.77;0.77;;;22.00;99.90;;;;;;5029993;28;20280;-77
2023/10/20 08:20:39;;;;;;;0.30;0.30;;;22.00;99.90;;;;;;5038025;28;20612;-77
2023/10/20 08:23:05;;;;;;;2.90;0.87;;;22.10;99.90;;;;;;5041421;28;20299;-78
2023/10/20 08:25:31;;;;;;;0.30;0.20;;;22.20;99.90;;;;;;5042417;28;20442;-76
2023/10/20 08:27:57;;;;;;;1.30;1.30;;;22.20;99.90;;;;;;5061045;28;20668;-77
2023/10/20 08:30:23;;;;;;;2.53;2.33;;;22.20;99.90;;;;;;5038584;28;20236;-77
2023/10/20 08:32:49;;;;;;;0.30;0.20;;;22.30;99.90;;;;;;5039510;28;20467;-77
2023/10/20 08:35:15;;;;;;;0.30;0.20;;;22.40;99.90;;;;;;5039792;28;20462;-77
2023/10/20 08:37:41;;;;;;;0.30;0.30;;;22.50;99.90;;;;;;5029060;28;20440;-79
2023/10/20 08:40:10;;;;;;;0.30;0.20;;;22.50;99.90;;;;;;5031217;28;20253;-75
2023/10/20 08:42:39;;;;;;;0.30;0.20;;;22.60;99.90;;;;;;5028971;28;20503;-77
2023/10/20 08:45:12;;;;;;;0.30;0.20;;;22.60;99.90;;;;;;5039406;28;20443;-77
2023/10/20 08:47:41;;;;;;;0.30;0.20;;;22.80;99.90;;;;;;5030384;28;20954;-78
2023/10/20 08:50:09;;;;;;;0.30;0.20;;;23.10;99.90;;;;;;5035569;28;20686;-79
2023/10/20 08:52:35;;;;;;;0.40;0.40;;;23.30;99.90;;;;;;5067134;28;20671;-78
2023/10/20 08:55:01;;;;;;;0.30;0.23;;;23.60;99.90;;;;;;5029810;28;20456;-80
2023/10/20 08:57:27;;;;;;;0.43;0.43;;;23.90;99.90;;;;;;5033837;28;20431;-80
2023/10/20 08:59:54;;;;;;;0.30;0.20;;;24.20;99.90;;;;;;5038688;28;20311;-79
2023/10/20 09:02:20;;;;;;;0.30;0.20;;;24.40;99.90;;;;;;5040622;28;20418;-78
2023/10/20 09:04:51;;;;;;;0.30;0.20;;;24.50;99.90;;;;;;5034654;28;20572;-78
2023/10/20 09:07:17;;;;;;;0.30;0.20;;;24.70;99.90;;;;;;5041396;28;20785;-79
2023/10/20 09:09:43;;;;;;;0.40;0.33;;;24.80;99.90;;;;;;5036570;28;20451;-78
2023/10/20 09:12:09;;;;;;;0.50;0.47;;;24.90;99.90;;;;;;5040333;28;20260;-80
2023/10/20 09:14:39;;;;;;;1.13;1.13;;;25.00;99.90;;;;;;5043921;28;21163;-81
2023/10/20 09:17:05;;;;;;;0.30;0.20;;;25.00;99.90;;;;;;5041952;28;20700;-77
2023/10/20 09:19:31;;;;;;;0.30;0.20;;;25.00;99.90;;;;;;5042532;28;20465;-80
2023/10/20 09:21:57;;;;;;;0.30;0.20;;;25.10;99.90;;;;;;5040905;28;20457;-78
2023/10/20 09:24:30;;;;;;;0.30;0.20;;;25.20;99.90;;;;;;5038486;28;20700;-81
2023/10/20 09:26:56;;;;;;;0.30;0.20;;;25.20;99.90;;;;;;5039528;28;20491;-79
2023/10/20 09:29:23;;;;;;;0.30;0.20;;;25.20;99.90;;;;;;5065025;28;20557;-78
2023/10/20 09:31:49;;;;;;;0.50;0.50;;;25.30;99.90;;;;;;5037874;28;21494;-78
2023/10/20 09:34:15;;;;;;;0.83;0.83;;;25.40;99.90;;;;;;5040479;28;20768;-78
2023/10/20 09:36:45;;;;;;;0.30;0.20;;;25.50;99.90;;;;;;5032212;28;20441;-78
2023/10/20 09:39:20;;;;;;;0.30;0.20;;;25.50;99.90;;;;;;5043562;28;20188;-76
2023/10/20 09:41:50;;;;;;;0.30;0.20;;;25.50;99.90;;;;;;5051338;28;20525;-78
2023/10/20 09:44:32;;;;;;;0.30;0.20;;;25.50;99.90;;;;;;5037002;28;20948;-78
2023/10/20 09:47:17;;;;;;;0.30;0.20;;;25.50;99.90;;;;;;5037445;28;20441;-79
2023/10/20 09:49:42;;;;;;;1.60;0.87;;;25.50;99.90;;;;;;5063346;28;20454;-76
2023/10/20 09:52:10;;;;;;;0.60;0.57;;;25.60;99.90;;;;;;5038907;28;20431;-77
2023/10/20 09:54:37;;;;;;;0.30;0.30;;;25.70;99.90;;;;;;5035917;28;20439;-77
2023/10/20 09:57:06;;;;;;;0.30;0.20;;;25.70;99.90;;;;;;5038629;28;20435;-77
2023/10/20 09:59:31;;;;;;;0.30;0.20;;;25.80;99.90;;;;;;5048897;28;20944;-78
2023/10/20 10:02:01;;;;;;;4.33;2.83;;;25.80;99.90;;;;;;5047225;28;20564;-78
2023/10/20 10:04:39;;;;;;;0.33;0.30;;;25.90;99.90;;;;;;5040128;28;20224;-79
2023/10/20 10:07:06;;;;;;;0.40;0.30;;;25.90;99.90;;;;;;5041464;28;20945;-85
2023/10/20 10:09:52;;;;;;;0.40;0.37;;;25.80;99.90;;;;;;5044965;28;20926;-82
2023/10/20 10:12:19;;;;;;;0.30;0.20;;;25.90;99.90;;;;;;5044118;28;20513;-78
2023/10/20 10:15:14;;;;;;;0.30;0.20;;;26.10;99.90;;;;;;5041578;28;20448;-80
2023/10/20 10:17:51;;;;;;;1.70;0.50;;;26.20;99.90;;;;;;5040101;28;20434;-80
2023/10/20 10:20:26;;;;;;;1.43;1.33;;;26.30;99.90;;;;;;5044472;28;20478;-77
2023/10/20 10:23:04;;;;;;;2.20;1.80;;;26.40;99.90;;;;;;5043992;28;21092;-79
2023/10/20 10:25:41;;;;;;;0.30;0.20;;;26.50;99.90;;;;;;5044533;28;20451;-78
2023/10/20 10:28:15;;;;;;;0.37;0.37;;;26.60;99.90;;;;;;5038827;28;20536;-76
2023/10/20 10:30:42;;;;;;;0.30;0.20;;;26.70;99.90;;;;;;5044431;28;20447;-83
2023/10/20 10:33:10;;;;;;;1.07;0.67;;;26.80;99.90;;;;;;5044294;28;20479;-81
2023/10/20 10:35:39;;;;;;;1.23;1.13;;;26.90;99.90;;;;;;5046332;28;20449;-81
2023/10/20 10:38:17;;;;;;;0.30;0.20;;;26.90;99.90;;;;;;5039879;28;20418;-81
2023/10/20 10:40:47;;;;;;;0.73;0.70;;;26.90;99.90;;;;;;5043436;28;20471;-81
2023/10/20 10:43:21;;;;;;;0.30;0.20;;;27.10;99.90;;;;;;5041596;28;20428;-78
2023/10/20 10:45:52;;;;;;;0.30;0.20;;;27.20;99.90;;;;;;5037312;28;20476;-80
2023/10/20 10:48:18;;;;;;;1.00;1.00;;;27.30;99.90;;;;;;5037769;28;20428;-77
2023/10/20 10:50:46;;;;;;;0.40;0.40;;;27.30;99.90;;;;;;5040384;28;20522;-79
2023/10/20 10:53:13;;;;;;;0.30;0.20;;;27.40;99.90;;;;;;5039092;28;20445;-78
2023/10/20 10:55:40;;;;;;;0.30;0.30;;;27.50;99.90;;;;;;5034778;28;20568;-79
2023/10/20 10:58:08;;;;;;;0.30;0.20;;;27.60;99.90;;;;;;5057929;28;21098;-84
2023/10/20 11:00:34;;;;;;;0.30;0.20;;;27.60;99.90;;;;;;5038347;28;20980;-78
2023/10/20 11:03:02;;;;;;;2.87;2.67;;;27.70;99.90;;;;;;5040010;28;20440;-81
2023/10/20 11:05:29;;;;;;;0.30;0.20;;;27.80;99.90;;;;;;5023786;28;20526;-79
2023/10/20 11:08:01;;;;;;;0.30;0.20;;;27.90;99.90;;;;;;5027886;28;20523;-80
2023/10/20 11:10:28;;;;;;;0.50;0.30;;;28.00;99.90;;;;;;5039664;28;20554;-80
2023/10/20 11:12:58;;;;;;;0.40;0.30;;;28.10;99.90;;;;;;5038147;28;20446;-80
2023/10/20 11:15:30;;;;;;;0.40;0.40;;;28.10;99.90;;;;;;5032891;28;20800;-80
2023/10/20 11:18:00;;;;;;;0.30;0.30;;;28.30;99.70;;;;;;5027230;28;20429;-81
2023/10/20 11:20:27;;;;;;;0.30;0.20;;;28.40;98.90;;;;;;5019023;28;20483;-84
2023/10/20 11:22:56;;;;;;;0.30;0.20;;;28.50;98.20;;;;;;5030729;28;20478;-80
2023/10/20 11:25:23;;;;;;;3.73;3.40;;;28.50;98.30;;;;;;5032793;28;20734;-84
2023/10/20 11:27:58;;;;;;;1.03;1.03;;;28.50;98.10;;;;;;5027374;28;20464;-81
2023/10/20 11:30:28;;;;;;;0.63;0.63;;;28.60;98.00;;;;;;5036474;28;20463;-84
2023/10/20 11:32:54;;;;;;;2.10;1.17;;;28.80;98.40;;;;;;5023943;28;20460;-80
2023/10/20 11:35:24;;;;;;;0.30;0.20;;;28.80;98.10;;;;;;5035551;28;20795;-80
2023/10/20 11:37:54;;;;;;;0.30;0.20;;;28.80;97.90;;;;;;5027175;28;20879;-81
2023/10/20 11:40:21;;;;;;;0.30;0.30;;;28.80;97.50;;;;;;5023109;28;20822;-81
2023/10/20 11:42:46;;;;;;;0.73;0.73;;;28.80;97.50;;;;;;5037649;28;20422;-78
2023/10/20 11:45:12;;;;;;;0.57;0.40;;;28.80;97.40;;;;;;5037964;28;20439;-79
2023/10/20 11:47:39;;;;;;;0.30;0.20;;;28.70;97.20;;;;;;5069879;28;20357;-80
2023/10/20 11:50:08;;;;;;;0.30;0.20;;;28.60;97.10;;;;;;5072377;28;20387;-79
2023/10/20 11:52:38;;;;;;;0.30;0.20;;;28.60;97.10;;;;;;5042114;28;20399;-80
2023/10/20 11:55:05;;;;;;;0.30;0.20;;;28.70;96.90;;;;;;5041739;28;20452;-80
2023/10/20 11:57:31;;;;;;;1.23;1.13;;;28.60;96.40;;;;;;5039436;28;20421;-79
2023/10/20 11:59:57;;;;;;;0.30;0.20;;;28.50;96.20;;;;;;5042152;28;20506;-79
2023/10/20 12:02:23;;;;;;;0.30;0.20;;;28.50;96.50;;;;;;5037261;28;20426;-78
2023/10/20 12:04:48;;;;;;;0.50;0.47;;;28.60;96.40;;;;;;5038987;28;20268;-79
2023/10/20 12:07:14;;;;;;;6.43;1.90;;;28.60;96.30;;;;;;5037396;28;20464;-80
2023/10/20 12:09:40;;;;;;;0.30;0.20;;;28.60;96.00;;;;;;5028013;28;20263;-78
2023/10/20 12:12:06;;;;;;;0.30;0.20;;;28.60;96.10;;;;;;5026541;28;20590;-78
2023/10/20 12:14:32;;;;;;;0.77;0.77;;;28.60;96.10;;;;;;5032577;28;20589;-79
2023/10/20 12:16:58;;;;;;;0.30;0.20;;;28.60;95.70;;;;;;5037437;28;20600;-79
2023/10/20 12:19:23;;;;;;;1.20;1.20;;;28.60;95.70;;;;;;5044020;28;20216;-78
2023/10/20 12:21:49;;;;;;;0.30;0.30;;;28.50;95.70;;;;;;5034372;28;20670;-79
2023/10/20 12:24:15;;;;;;;0.30;0.20;;;28.60;95.40;;;;;;5031957;28;20278;-79
2023/10/20 12:26:41;;;;;;;0.50;0.27;;;28.60;95.50;;;;;;5039566;28;20194;-79
2023/10/20 12:29:07;;;;;;;1.80;1.70;;;28.60;95.50;;;;;;5036945;28;21038;-79
2023/10/20 12:31:32;;;;;;;3.60;0.70;;;28.50;95.60;;;;;;5025572;28;20595;-79
2023/10/20 12:33:58;;;;;;;0.30;0.20;;;28.50;95.50;;;;;;5027741;28;20189;-79
2023/10/20 12:36:28;;;;;;;0.30;0.20;;;28.40;95.60;;;;;;5040793;28;20208;-79
2023/10/20 12:38:55;;;;;;;0.30;0.30;;;28.40;95.50;;;;;;5036495;28;20201;-79
2023/10/20 12:41:21;;;;;;;0.30;0.20;;;28.30;95.50;;;;;;5038101;28;20490;-79
2023/10/20 12:43:48;;;;;;;0.30;0.20;;;28.30;95.50;;;;;;5035339;28;20441;-78
2023/10/20 12:46:14;;;;;;;1.60;1.60;;;28.30;95.60;;;;;;5037774;28;20475;-79
2023/10/20 12:48:40;;;;;;;0.30;0.20;;;28.30;95.80;;;;;;5038668;28;20426;-79
2023/10/20 12:51:10;;;;;;;0.30;0.30;;;28.30;95.60;;;;;;5038121;28;20491;-79
2023/10/20 12:53:36;;;;;;;0.30;0.20;;;28.20;95.50;;;;;;5036803;28;20411;-79
2023/10/20 12:56:03;;;;;;;0.30;0.20;;;28.20;95.30;;;;;;5024628;28;20495;-79
2023/10/20 12:58:28;;;;;;;0.30;0.20;;;28.10;95.30;;;;;;5020538;28;20940;-79
2023/10/20 13:00:54;;;;;;;4.33;1.17;;;28.10;95.40;;;;;;5029809;28;20493;-79
2023/10/20 13:03:20;;;;;;;2.70;2.50;;;28.10;95.50;;;;;;5030798;28;20201;-78
2023/10/20 13:05:46;;;;;;;1.23;1.17;;;28.20;95.70;;;;;;5019810;28;20201;-80
2023/10/20 13:08:13;;;;;;;7.90;5.47;;;28.10;95.60;;;;;;5020346;28;20212;-80
2023/10/20 13:10:39;;;;;;;2.00;1.90;;;28.20;95.60;;;;;;5036674;28;20257;-80
2023/10/20 13:13:06;;;;;;;0.93;0.80;;;28.20;95.50;;;;;;5038156;28;20430;-79
2023/10/20 13:15:33;;;;;;;0.30;0.20;;;28.10;95.70;;;;;;5038173;28;20443;-80
2023/10/20 13:17:59;;;;;;;0.30;0.30;;;28.10;95.60;;;;;;5037397;28;20434;-79